Time;durP1;ratioP1;P1;durP2;ratioP2;P2;SDS_P1;SDS_P2;PMS_P1;PMS_P2;Temp;Humidity;BMP_temperature;BMP_pressure;BME280_temperature;BME280_humidity;BME280_pressure;Samples;Min_cycle;Max_cycle;Signal;HPM_P1;HPM_P2
2022/08/09 00:01:58;;;;;;;2.70;2.27;;;13.50;63.10;;;;;;4164863;28;20200;-71
2022/08/09 00:03:58;;;;;;;3.80;2.13;;;13.40;63.40;;;;;;4165429;28;20208;-71
2022/08/09 00:05:59;;;;;;;3.03;1.70;;;13.40;63.80;;;;;;4165296;28;20767;-71
2022/08/09 00:08:00;;;;;;;2.10;2.00;;;13.30;64.40;;;;;;4165373;28;20215;-71
2022/08/09 00:10:00;;;;;;;2.40;2.27;;;13.30;64.20;;;;;;4165345;28;20684;-70
2022/08/09 00:12:01;;;;;;;1.70;1.60;;;13.30;64.40;;;;;;4164896;28;20200;-70
2022/08/09 00:14:02;;;;;;;2.03;1.57;;;13.40;64.30;;;;;;4165280;28;20183;-71
2022/08/09 00:16:03;;;;;;;2.20;2.03;;;13.30;64.10;;;;;;4165104;28;20192;-72
2022/08/09 00:18:03;;;;;;;2.30;2.10;;;13.30;64.40;;;;;;4165269;28;20671;-72
2022/08/09 00:20:05;;;;;;;2.10;2.00;;;13.30;64.90;;;;;;4165142;28;20184;-72
2022/08/09 00:22:05;;;;;;;1.87;1.77;;;13.20;64.80;;;;;;4164634;28;20200;-72
2022/08/09 00:24:06;;;;;;;2.20;2.10;;;13.20;65.00;;;;;;4163796;28;20181;-72
2022/08/09 00:26:07;;;;;;;2.57;2.00;;;13.20;65.40;;;;;;4165203;28;20187;-72
2022/08/09 00:28:08;;;;;;;3.87;1.93;;;13.10;65.70;;;;;;4165512;28;20177;-72
2022/08/09 00:30:09;;;;;;;2.53;2.37;;;13.10;65.90;;;;;;4163817;28;20200;-70
2022/08/09 00:32:10;;;;;;;2.53;2.10;;;13.00;66.20;;;;;;4165336;28;20699;-71
2022/08/09 00:34:10;;;;;;;2.10;1.90;;;13.00;66.10;;;;;;4164990;28;20268;-71
2022/08/09 00:36:11;;;;;;;3.33;1.90;;;13.00;66.20;;;;;;4164914;28;20181;-71
2022/08/09 00:38:12;;;;;;;2.10;1.90;;;12.90;66.60;;;;;;4165000;28;20600;-70
2022/08/09 00:40:13;;;;;;;3.87;1.77;;;12.90;66.90;;;;;;4164418;28;20252;-71
2022/08/09 00:42:13;;;;;;;1.77;1.67;;;12.90;66.70;;;;;;4164751;28;20203;-71
2022/08/09 00:44:14;;;;;;;2.90;1.80;;;12.90;66.80;;;;;;4164909;28;20180;-71
2022/08/09 00:46:15;;;;;;;2.00;1.90;;;12.80;68.10;;;;;;4164932;28;20263;-73
2022/08/09 00:48:16;;;;;;;1.93;1.80;;;12.80;67.00;;;;;;4164749;28;20563;-71
2022/08/09 00:50:16;;;;;;;2.30;2.10;;;12.80;67.30;;;;;;4164344;28;20196;-71
2022/08/09 00:52:17;;;;;;;2.77;1.80;;;12.70;67.60;;;;;;4164681;28;20205;-71
2022/08/09 00:54:18;;;;;;;2.30;2.03;;;12.60;68.30;;;;;;4164665;28;20649;-71
2022/08/09 00:56:18;;;;;;;2.57;2.07;;;12.60;68.30;;;;;;4163633;28;20262;-71
2022/08/09 00:58:19;;;;;;;2.33;2.13;;;12.60;68.60;;;;;;4165075;28;20600;-71
2022/08/09 01:00:19;;;;;;;2.67;2.40;;;12.60;68.80;;;;;;4164159;28;20612;-71
2022/08/09 01:02:23;;;;;;;2.30;2.20;;;12.50;68.90;;;;;;4165119;28;20685;-71
2022/08/09 01:04:49;;;;;;;2.17;2.07;;;12.50;68.80;;;;;;4164790;28;20178;-71
2022/08/09 01:07:08;;;;;;;1.83;1.73;;;12.50;68.90;;;;;;4180391;28;20176;-71
2022/08/09 01:09:30;;;;;;;2.57;1.97;;;12.60;69.20;;;;;;4181214;28;20160;-71
2022/08/09 01:11:36;;;;;;;2.97;2.03;;;12.60;68.90;;;;;;4180344;28;20188;-71
2022/08/09 01:13:50;;;;;;;2.03;1.83;;;12.60;68.80;;;;;;4180422;28;20184;-71
2022/08/09 01:15:52;;;;;;;2.17;1.97;;;12.60;68.60;;;;;;4180854;28;20176;-71
2022/08/09 01:17:58;;;;;;;2.83;2.00;;;12.60;68.40;;;;;;4181108;28;20208;-71
2022/08/09 01:20:07;;;;;;;2.83;2.10;;;12.60;68.20;;;;;;4181139;28;20176;-71
2022/08/09 01:22:27;;;;;;;2.33;2.13;;;12.60;68.40;;;;;;4180578;28;20227;-71
2022/08/09 01:25:07;;;;;;;1.90;1.80;;;12.50;68.70;;;;;;4181000;28;20168;-71
2022/08/09 01:27:11;;;;;;;2.40;2.10;;;12.50;68.90;;;;;;4179487;28;20196;-71
2022/08/09 01:29:14;;;;;;;2.23;2.03;;;12.50;69.30;;;;;;4179451;28;20805;-71
2022/08/09 01:31:19;;;;;;;2.97;2.33;;;12.40;69.50;;;;;;4179821;28;20203;-71
2022/08/09 01:33:23;;;;;;;2.33;2.13;;;12.40;69.80;;;;;;4180531;28;20852;-70
2022/08/09 01:35:46;;;;;;;3.07;2.10;;;12.30;70.10;;;;;;4180638;28;20183;-71
2022/08/09 01:37:50;;;;;;;1.90;1.80;;;12.30;70.30;;;;;;4180314;28;20224;-71
2022/08/09 01:39:53;;;;;;;2.10;2.00;;;12.20;70.50;;;;;;4180677;28;20199;-71
2022/08/09 01:41:54;;;;;;;2.43;2.20;;;12.20;71.00;;;;;;4179822;28;20200;-72
2022/08/09 01:43:59;;;;;;;1.97;1.87;;;12.20;71.10;;;;;;4180450;28;20232;-71
2022/08/09 01:46:01;;;;;;;3.10;2.20;;;12.10;71.20;;;;;;4180412;28;20188;-71
2022/08/09 01:48:02;;;;;;;2.03;1.90;;;12.10;71.40;;;;;;4180236;28;20244;-70
2022/08/09 01:50:03;;;;;;;2.27;2.07;;;12.00;71.80;;;;;;4180350;28;20195;-71
2022/08/09 01:52:11;;;;;;;2.70;2.03;;;12.00;72.20;;;;;;4179649;28;20302;-71
2022/08/09 01:54:14;;;;;;;2.07;1.97;;;12.00;72.40;;;;;;4162545;28;20649;-71
2022/08/09 01:56:16;;;;;;;2.40;2.20;;;12.00;72.60;;;;;;4179948;28;20184;-71
2022/08/09 01:58:17;;;;;;;2.50;2.30;;;12.00;72.80;;;;;;4180189;28;20548;-71
2022/08/09 02:00:18;;;;;;;2.63;2.40;;;12.00;72.60;;;;;;4179878;28;20203;-72
2022/08/09 02:02:26;;;;;;;2.60;2.40;;;12.00;72.80;;;;;;4178854;28;20242;-72
2022/08/09 02:04:30;;;;;;;2.90;2.70;;;11.90;73.20;;;;;;4180227;28;20168;-71
2022/08/09 02:08:51;;;;;;;2.63;2.30;;;11.80;73.60;;;;;;4179957;28;20198;-70
2022/08/09 02:10:55;;;;;;;4.80;2.50;;;11.90;73.80;;;;;;4179424;28;20168;-71
2022/08/09 02:12:59;;;;;;;4.43;2.60;;;11.80;74.30;;;;;;4178551;28;20204;-71
2022/08/09 02:15:01;;;;;;;2.50;2.30;;;11.90;74.80;;;;;;4179641;28;20184;-70
2022/08/09 02:17:03;;;;;;;3.10;2.80;;;11.90;75.00;;;;;;4172387;28;20216;-70
2022/08/09 02:19:04;;;;;;;2.77;2.57;;;11.90;74.80;;;;;;4179570;28;20220;-71
2022/08/09 02:21:10;;;;;;;2.40;2.20;;;12.00;74.70;;;;;;4177851;28;20191;-71
2022/08/09 02:23:30;;;;;;;5.93;2.60;;;12.00;74.50;;;;;;4180322;28;20211;-72
2022/08/09 02:25:34;;;;;;;3.53;2.30;;;12.00;74.30;;;;;;4179839;28;20184;-71
2022/08/09 02:27:38;;;;;;;3.73;3.00;;;11.90;74.50;;;;;;4178400;28;20192;-70
2022/08/09 02:29:44;;;;;;;2.50;2.30;;;11.90;75.10;;;;;;4179941;28;20180;-72
2022/08/09 02:31:46;;;;;;;2.67;2.47;;;11.90;75.30;;;;;;4179332;28;20579;-70
2022/08/09 02:33:50;;;;;;;3.17;2.60;;;11.80;75.30;;;;;;4178536;28;20195;-73
2022/08/09 02:35:57;;;;;;;4.53;2.70;;;11.80;75.30;;;;;;4179597;28;20276;-71
2022/08/09 02:38:00;;;;;;;2.60;2.40;;;11.80;75.70;;;;;;4179709;28;20248;-72
2022/08/09 02:40:06;;;;;;;2.70;2.50;;;11.80;76.10;;;;;;4179521;28;20187;-71
2022/08/09 02:42:11;;;;;;;2.53;2.33;;;11.70;76.50;;;;;;4178896;28;20199;-75
2022/08/09 02:44:19;;;;;;;2.83;2.63;;;11.70;76.70;;;;;;4178229;28;20244;-71
2022/08/09 02:46:23;;;;;;;3.30;3.00;;;11.70;76.40;;;;;;4179507;28;20230;-72
2022/08/09 02:48:23;;;;;;;2.70;2.50;;;11.70;76.20;;;;;;4179650;28;20229;-70
2022/08/09 02:50:44;;;;;;;2.80;2.60;;;11.70;76.50;;;;;;4178849;28;20686;-71
2022/08/09 02:52:58;;;;;;;2.50;2.30;;;11.60;77.20;;;;;;4178438;28;20214;-71
2022/08/09 02:55:00;;;;;;;3.20;2.83;;;11.60;77.40;;;;;;4179738;28;20186;-71
2022/08/09 02:57:02;;;;;;;3.50;2.80;;;11.60;77.40;;;;;;4179400;28;20206;-74
2022/08/09 02:59:04;;;;;;;3.10;2.73;;;11.60;77.60;;;;;;4179657;28;20182;-71
2022/08/09 03:01:06;;;;;;;3.07;2.80;;;11.50;77.80;;;;;;4177986;28;20184;-71
2022/08/09 03:03:07;;;;;;;3.03;2.83;;;11.50;78.40;;;;;;4164689;28;20834;-71
2022/08/09 03:05:11;;;;;;;5.03;2.80;;;11.50;78.10;;;;;;4164464;28;20252;-71
2022/08/09 03:07:12;;;;;;;3.17;2.87;;;11.50;79.20;;;;;;4177357;28;20672;-71
2022/08/09 03:09:14;;;;;;;3.00;2.80;;;11.40;79.70;;;;;;4179229;28;20184;-71
2022/08/09 03:11:18;;;;;;;4.30;2.87;;;11.40;79.70;;;;;;4178569;28;20192;-71
2022/08/09 03:13:21;;;;;;;3.20;2.93;;;11.40;79.50;;;;;;4179304;28;20183;-70
2022/08/09 03:15:23;;;;;;;3.03;2.80;;;11.40;79.40;;;;;;4179133;28;20188;-71
2022/08/09 03:17:25;;;;;;;3.93;2.90;;;11.40;79.50;;;;;;4179088;28;20696;-71
2022/08/09 03:19:27;;;;;;;3.10;2.80;;;11.30;79.70;;;;;;4178587;28;20192;-71
2022/08/09 03:21:29;;;;;;;3.07;2.87;;;11.30;79.70;;;;;;4178426;28;20250;-70
2022/08/09 03:23:30;;;;;;;3.30;3.10;;;11.30;80.10;;;;;;4179181;28;20192;-71
2022/08/09 03:25:32;;;;;;;2.53;2.33;;;11.30;80.50;;;;;;4179060;28;20237;-71
2022/08/09 03:27:34;;;;;;;3.03;2.73;;;11.20;80.70;;;;;;4178943;28;20187;-71
2022/08/09 03:29:36;;;;;;;3.33;2.97;;;11.30;81.10;;;;;;4179013;28;20294;-71
2022/08/09 03:31:38;;;;;;;2.93;2.73;;;11.20;81.20;;;;;;4178288;28;20298;-70
2022/08/09 03:33:39;;;;;;;3.40;3.10;;;11.20;81.60;;;;;;4179289;28;20267;-71
2022/08/09 03:35:40;;;;;;;3.47;3.17;;;11.10;82.10;;;;;;4178865;28;20294;-70
2022/08/09 03:37:41;;;;;;;3.40;3.10;;;11.10;82.50;;;;;;4178605;28;20210;-71
2022/08/09 03:39:42;;;;;;;3.07;2.87;;;11.10;82.80;;;;;;4178848;28;20188;-71
2022/08/09 03:41:42;;;;;;;3.03;2.83;;;11.10;83.00;;;;;;4178191;28;20200;-71
2022/08/09 03:43:44;;;;;;;3.87;3.23;;;11.10;83.50;;;;;;4177523;28;20613;-72
2022/08/09 03:45:45;;;;;;;3.47;2.73;;;11.10;83.80;;;;;;4178651;28;20178;-71
2022/08/09 03:47:46;;;;;;;3.30;3.00;;;11.10;84.40;;;;;;4177571;28;20223;-70
2022/08/09 03:49:49;;;;;;;3.40;2.93;;;11.10;84.10;;;;;;4178981;28;20267;-71
2022/08/09 03:51:56;;;;;;;3.40;3.10;;;11.10;84.20;;;;;;4178219;28;20636;-71
2022/08/09 03:53:56;;;;;;;3.87;3.57;;;11.10;84.70;;;;;;4179032;28;20183;-71
2022/08/09 03:55:57;;;;;;;3.47;3.13;;;11.00;84.80;;;;;;4179169;28;20184;-71
2022/08/09 03:57:58;;;;;;;3.50;3.20;;;11.00;85.10;;;;;;4179055;28;20226;-71
2022/08/09 03:59:58;;;;;;;4.27;3.13;;;11.00;85.70;;;;;;4179173;28;20188;-71
2022/08/09 04:02:00;;;;;;;3.57;3.27;;;11.00;85.80;;;;;;4178151;28;20593;-71
2022/08/09 04:04:03;;;;;;;3.57;3.27;;;11.10;86.30;;;;;;4178933;28;20289;-71
2022/08/09 04:06:04;;;;;;;3.40;3.10;;;11.10;86.40;;;;;;4178933;28;20381;-71
2022/08/09 04:08:05;;;;;;;4.27;3.17;;;11.10;86.40;;;;;;4178926;28;20531;-71
2022/08/09 04:10:06;;;;;;;3.57;3.00;;;11.00;86.20;;;;;;4179008;28;20243;-72
2022/08/09 04:12:09;;;;;;;3.80;3.50;;;11.00;86.50;;;;;;4176757;28;20222;-71
2022/08/09 04:14:10;;;;;;;4.03;3.63;;;11.00;87.50;;;;;;4178623;28;20188;-70
2022/08/09 04:16:11;;;;;;;4.13;3.60;;;11.00;87.50;;;;;;4178441;28;20607;-70
2022/08/09 04:18:12;;;;;;;3.60;3.30;;;11.00;87.80;;;;;;4178498;28;20210;-70
2022/08/09 04:20:14;;;;;;;3.93;3.03;;;11.00;87.80;;;;;;4178047;28;20650;-70
2022/08/09 04:22:14;;;;;;;3.57;3.20;;;11.00;87.50;;;;;;4178428;28;20234;-71
2022/08/09 04:24:15;;;;;;;3.57;3.27;;;11.00;87.90;;;;;;4178279;28;20180;-71
2022/08/09 04:26:15;;;;;;;4.07;3.50;;;11.00;88.10;;;;;;4178329;28;20207;-71
2022/08/09 04:28:16;;;;;;;4.17;3.60;;;11.00;87.90;;;;;;4178254;28;20267;-71
2022/08/09 04:30:19;;;;;;;3.83;3.53;;;11.00;89.10;;;;;;4167525;28;20223;-71
2022/08/09 04:32:19;;;;;;;3.43;3.13;;;11.00;89.50;;;;;;4178771;28;20207;-71
2022/08/09 04:34:20;;;;;;;3.47;3.17;;;11.10;89.40;;;;;;4181271;28;20195;-71
2022/08/09 04:36:23;;;;;;;3.93;3.63;;;11.10;89.10;;;;;;4180050;28;20188;-71
2022/08/09 04:38:24;;;;;;;3.83;3.53;;;11.10;90.00;;;;;;4181571;28;20635;-71
2022/08/09 04:40:47;;;;;;;3.47;3.23;;;11.10;89.10;;;;;;4180630;28;20188;-71
2022/08/09 04:42:45;;;;;;;3.63;3.33;;;11.10;89.40;;;;;;4180347;28;20681;-71
2022/08/09 04:44:46;;;;;;;3.83;3.53;;;11.10;89.60;;;;;;4181409;28;20187;-71
2022/08/09 04:46:46;;;;;;;3.80;3.40;;;11.10;89.50;;;;;;4181349;28;20194;-72
2022/08/09 04:48:47;;;;;;;3.97;3.33;;;11.20;89.80;;;;;;4181187;28;20246;-72
2022/08/09 04:50:47;;;;;;;3.90;3.50;;;11.20;89.40;;;;;;4179265;28;20936;-71
2022/08/09 04:52:48;;;;;;;3.80;3.43;;;11.20;89.70;;;;;;4181188;28;20207;-71
2022/08/09 04:54:50;;;;;;;4.13;3.60;;;11.20;89.70;;;;;;4180932;28;20191;-72
2022/08/09 04:56:50;;;;;;;5.77;3.77;;;11.20;90.00;;;;;;4169936;28;20594;-72
2022/08/09 04:58:51;;;;;;;3.73;3.40;;;11.30;89.50;;;;;;4164522;28;20190;-71
2022/08/09 05:00:52;;;;;;;3.70;3.40;;;11.40;88.80;;;;;;4163739;28;20189;-72
2022/08/09 05:02:52;;;;;;;3.80;3.50;;;11.40;88.50;;;;;;4164328;28;20265;-71
2022/08/09 05:04:53;;;;;;;4.03;3.73;;;11.40;88.50;;;;;;4164428;28;20184;-72
2022/08/09 05:06:53;;;;;;;3.77;3.47;;;11.40;88.50;;;;;;4171281;28;20267;-71
2022/08/09 05:08:55;;;;;;;4.13;3.73;;;11.40;89.10;;;;;;4180701;28;20261;-71
2022/08/09 05:10:55;;;;;;;4.87;3.87;;;11.50;88.80;;;;;;4180038;28;20184;-71
2022/08/09 05:12:56;;;;;;;3.60;3.30;;;11.50;88.60;;;;;;4180549;28;20248;-71
2022/08/09 05:14:56;;;;;;;4.10;3.80;;;11.60;88.10;;;;;;4180578;28;20187;-71
2022/08/09 05:16:58;;;;;;;4.00;3.67;;;11.60;88.30;;;;;;4180573;28;20223;-71
2022/08/09 05:18:59;;;;;;;3.93;3.50;;;11.70;87.90;;;;;;4180681;28;20285;-71
2022/08/09 05:21:00;;;;;;;3.87;3.47;;;11.70;88.20;;;;;;4179905;28;20666;-71
2022/08/09 05:23:01;;;;;;;3.77;3.47;;;11.70;87.80;;;;;;4180150;28;20303;-71
2022/08/09 05:25:03;;;;;;;4.30;3.90;;;11.70;88.50;;;;;;4180496;28;20187;-72
2022/08/09 05:27:03;;;;;;;6.47;5.47;;;11.80;88.30;;;;;;4180384;28;20180;-71
2022/08/09 05:29:04;;;;;;;4.10;3.70;;;11.90;87.70;;;;;;4179150;28;20622;-71
2022/08/09 05:31:05;;;;;;;4.23;3.87;;;11.90;88.10;;;;;;4179724;28;20284;-71
2022/08/09 05:33:05;;;;;;;4.60;4.20;;;11.90;88.30;;;;;;4178943;28;20204;-70
2022/08/09 05:35:06;;;;;;;4.03;3.73;;;11.90;88.10;;;;;;4180361;28;20672;-71
2022/08/09 05:37:07;;;;;;;4.40;3.90;;;11.90;88.30;;;;;;4178890;28;20704;-71
2022/08/09 05:39:08;;;;;;;3.80;3.50;;;12.00;88.40;;;;;;4180310;28;20176;-71
2022/08/09 05:41:09;;;;;;;3.83;3.53;;;12.10;87.90;;;;;;4179538;28;20192;-71
2022/08/09 05:43:10;;;;;;;4.07;3.77;;;12.10;87.80;;;;;;4179673;28;20237;-71
2022/08/09 05:45:10;;;;;;;4.00;3.63;;;12.20;88.10;;;;;;4180164;28;20640;-71
2022/08/09 05:47:11;;;;;;;4.70;4.30;;;12.20;87.70;;;;;;4180110;28;20184;-71
2022/08/09 05:49:11;;;;;;;4.73;4.33;;;12.20;88.30;;;;;;4180066;28;20214;-71
2022/08/09 05:51:12;;;;;;;4.40;3.97;;;12.30;87.90;;;;;;4179400;28;20215;-71
2022/08/09 05:53:13;;;;;;;4.50;4.20;;;12.40;88.80;;;;;;4179961;28;20208;-71
2022/08/09 05:55:13;;;;;;;3.87;3.43;;;12.40;88.90;;;;;;4179932;28;20571;-71
2022/08/09 05:57:14;;;;;;;4.20;3.80;;;12.50;90.10;;;;;;4179953;28;20618;-71
2022/08/09 05:59:15;;;;;;;3.97;3.33;;;12.50;88.60;;;;;;4179894;28;20186;-71
2022/08/09 06:01:15;;;;;;;4.47;4.07;;;12.60;88.60;;;;;;4179115;28;20558;-71
2022/08/09 06:03:16;;;;;;;5.63;4.93;;;12.70;87.80;;;;;;4179940;28;20666;-71
2022/08/09 06:05:16;;;;;;;4.13;3.77;;;12.80;87.60;;;;;;4180049;28;20177;-72
2022/08/09 06:07:17;;;;;;;4.10;3.70;;;12.80;87.10;;;;;;4179838;28;20238;-71
2022/08/09 06:09:19;;;;;;;4.30;3.90;;;12.90;86.60;;;;;;4179980;28;20192;-71
2022/08/09 06:11:19;;;;;;;4.40;3.30;;;13.10;86.40;;;;;;4177638;28;20670;-71
2022/08/09 06:13:21;;;;;;;3.47;3.17;;;13.10;86.00;;;;;;4178810;28;20196;-71
2022/08/09 06:15:22;;;;;;;5.03;4.63;;;13.20;86.50;;;;;;4179587;28;20223;-71
2022/08/09 06:17:22;;;;;;;5.43;3.57;;;13.30;86.10;;;;;;4179602;28;20266;-71
2022/08/09 06:19:23;;;;;;;4.97;3.77;;;13.50;85.80;;;;;;4179810;28;20561;-72
2022/08/09 06:21:23;;;;;;;4.00;3.50;;;13.50;86.00;;;;;;4178913;28;20231;-71
2022/08/09 06:23:29;;;;;;;5.47;5.03;;;13.60;84.30;;;;;;4178450;28;20187;-71
2022/08/09 06:25:30;;;;;;;3.93;3.50;;;13.80;83.50;;;;;;4179532;28;20227;-71
2022/08/09 06:27:30;;;;;;;5.40;3.20;;;13.90;83.00;;;;;;4179709;28;20242;-71
2022/08/09 06:29:31;;;;;;;3.80;3.50;;;14.00;81.60;;;;;;4179478;28;20238;-71
2022/08/09 06:31:33;;;;;;;3.83;3.50;;;14.10;80.80;;;;;;4178808;28;20187;-71
2022/08/09 06:33:34;;;;;;;5.67;3.63;;;14.30;80.00;;;;;;4179760;28;20253;-71
2022/08/09 06:35:35;;;;;;;3.20;3.00;;;14.30;80.50;;;;;;4179539;28;20184;-71
2022/08/09 06:37:36;;;;;;;3.60;3.30;;;14.40;79.70;;;;;;4179244;28;20619;-71
2022/08/09 06:39:37;;;;;;;5.00;3.27;;;14.60;78.90;;;;;;4179417;28;20229;-71
2022/08/09 06:41:38;;;;;;;3.17;2.97;;;14.70;78.70;;;;;;4178673;28;20200;-72
2022/08/09 06:43:39;;;;;;;4.83;3.53;;;14.80;78.80;;;;;;4179555;28;20204;-71
2022/08/09 06:45:39;;;;;;;6.13;2.90;;;14.90;77.40;;;;;;4179461;28;20181;-72
2022/08/09 06:47:40;;;;;;;3.90;2.87;;;15.10;76.20;;;;;;4178027;28;20195;-71
2022/08/09 06:49:41;;;;;;;3.20;2.90;;;15.30;75.50;;;;;;4179310;28;20196;-71
2022/08/09 06:51:42;;;;;;;2.73;2.53;;;15.40;75.10;;;;;;4178518;28;20215;-72
2022/08/09 06:53:42;;;;;;;4.87;4.50;;;15.60;74.40;;;;;;4178699;28;20668;-71
2022/08/09 06:55:43;;;;;;;3.90;3.67;;;15.70;73.20;;;;;;4179040;28;20712;-71
2022/08/09 06:57:43;;;;;;;4.90;2.33;;;15.80;72.60;;;;;;4171103;28;20208;-71
2022/08/09 06:59:45;;;;;;;3.17;2.63;;;16.10;70.60;;;;;;4172827;28;20234;-71
2022/08/09 07:01:45;;;;;;;3.23;2.57;;;16.30;69.60;;;;;;4178392;28;20249;-71
2022/08/09 07:03:46;;;;;;;3.23;2.93;;;16.50;68.40;;;;;;4178977;28;20184;-71
2022/08/09 07:05:47;;;;;;;3.00;2.80;;;16.60;67.90;;;;;;4179158;28;20191;-72
2022/08/09 07:07:47;;;;;;;5.87;2.97;;;16.70;67.50;;;;;;4179139;28;20833;-72
2022/08/09 07:09:48;;;;;;;4.43;4.13;;;16.70;68.40;;;;;;4177739;28;20637;-72
2022/08/09 07:11:49;;;;;;;2.60;2.37;;;16.90;67.00;;;;;;4177050;28;20235;-71
2022/08/09 07:13:49;;;;;;;2.93;2.73;;;17.40;62.50;;;;;;4178973;28;20184;-71
2022/08/09 07:15:50;;;;;;;2.87;2.67;;;17.90;59.70;;;;;;4179022;28;20619;-72
2022/08/09 07:17:51;;;;;;;2.30;2.10;;;17.80;59.70;;;;;;4177596;28;20208;-71
2022/08/09 07:19:51;;;;;;;2.43;2.23;;;17.90;59.10;;;;;;4177496;28;20188;-71
2022/08/09 07:21:52;;;;;;;2.80;2.50;;;18.20;58.60;;;;;;4178201;28;20208;-71
2022/08/09 07:23:53;;;;;;;9.27;8.57;;;18.20;57.80;;;;;;4177708;28;20180;-71
2022/08/09 07:25:53;;;;;;;3.93;3.63;;;18.50;56.40;;;;;;4178689;28;20173;-71
2022/08/09 07:27:54;;;;;;;3.03;2.43;;;18.80;55.20;;;;;;4178881;28;20184;-71
2022/08/09 07:29:55;;;;;;;2.70;2.50;;;18.90;53.90;;;;;;4178523;28;20290;-71
2022/08/09 07:31:57;;;;;;;2.73;2.03;;;19.10;53.50;;;;;;4160641;28;20240;-71
2022/08/09 07:33:58;;;;;;;3.80;2.63;;;19.10;53.30;;;;;;4178767;28;20195;-71
2022/08/09 07:35:59;;;;;;;2.50;2.30;;;19.20;53.00;;;;;;4178785;28;20184;-72
2022/08/09 07:37:59;;;;;;;2.60;2.20;;;19.30;53.60;;;;;;4178791;28;20218;-72
2022/08/09 07:40:00;;;;;;;2.50;2.07;;;19.40;53.00;;;;;;4178871;28;20246;-71
2022/08/09 07:42:01;;;;;;;2.30;2.10;;;19.60;51.70;;;;;;4160418;28;20208;-71
2022/08/09 07:44:03;;;;;;;1.97;1.87;;;19.70;50.60;;;;;;4178771;28;20211;-71
2022/08/09 07:46:04;;;;;;;21.80;20.67;;;19.90;50.20;;;;;;4177415;28;20180;-71
2022/08/09 07:48:05;;;;;;;2.30;2.10;;;20.00;49.90;;;;;;4177483;28;20192;-71
2022/08/09 07:50:07;;;;;;;4.60;4.27;;;20.10;50.90;;;;;;4177582;28;20270;-71
2022/08/09 07:52:07;;;;;;;2.50;2.30;;;20.10;49.00;;;;;;4177882;28;20208;-71
2022/08/09 07:54:08;;;;;;;2.43;2.23;;;20.10;49.20;;;;;;4178568;28;20202;-71
2022/08/09 07:56:08;;;;;;;3.03;2.83;;;20.20;47.70;;;;;;4177353;28;20181;-70
2022/08/09 07:58:09;;;;;;;2.67;1.90;;;20.40;46.80;;;;;;4177163;28;20216;-71
2022/08/09 08:00:10;;;;;;;7.30;6.87;;;20.50;46.70;;;;;;4178281;28;20559;-70
2022/08/09 08:02:11;;;;;;;2.27;2.07;;;20.60;45.90;;;;;;4178296;28;20567;-71
2022/08/09 08:04:12;;;;;;;4.17;2.00;;;20.90;46.00;;;;;;4177091;28;20184;-70
2022/08/09 08:06:12;;;;;;;3.03;2.23;;;21.00;45.00;;;;;;4180645;28;20184;-71
2022/08/09 08:08:13;;;;;;;1.93;1.83;;;21.20;44.40;;;;;;4181635;28;20229;-71
2022/08/09 08:10:14;;;;;;;3.60;3.40;;;21.30;44.60;;;;;;4179785;28;20184;-71
2022/08/09 08:12:14;;;;;;;1.90;1.80;;;21.40;43.00;;;;;;4180273;28;20197;-71
2022/08/09 08:14:15;;;;;;;4.73;4.33;;;21.50;42.50;;;;;;4181641;28;20206;-72
2022/08/09 08:16:16;;;;;;;3.93;2.07;;;21.40;42.30;;;;;;4181421;28;20192;-70
2022/08/09 08:18:16;;;;;;;3.17;2.93;;;21.50;42.40;;;;;;4181504;28;20181;-71
2022/08/09 08:20:28;;;;;;;12.90;12.20;;;21.60;42.10;;;;;;4181099;28;20176;-70
2022/08/09 08:22:29;;;;;;;3.43;3.00;;;21.60;41.50;;;;;;4180465;28;20192;-70
2022/08/09 08:24:30;;;;;;;6.10;5.70;;;21.50;42.30;;;;;;4180073;28;20574;-70
2022/08/09 08:26:32;;;;;;;12.57;11.87;;;21.70;41.70;;;;;;4180138;28;20207;-72
2022/08/09 08:28:33;;;;;;;3.40;2.00;;;21.70;41.80;;;;;;4181424;28;20188;-72
2022/08/09 08:30:33;;;;;;;1.90;1.70;;;21.90;41.60;;;;;;4179319;28;20531;-71
2022/08/09 08:32:34;;;;;;;2.33;1.97;;;22.00;41.80;;;;;;4181863;28;20620;-72
2022/08/09 08:34:35;;;;;;;8.67;8.17;;;22.20;41.70;;;;;;4181650;28;20309;-72
2022/08/09 08:36:35;;;;;;;4.70;4.23;;;22.10;40.10;;;;;;4181150;28;20602;-71
2022/08/09 08:38:37;;;;;;;2.83;2.60;;;21.90;41.20;;;;;;4181319;28;20534;-72
2022/08/09 08:40:38;;;;;;;2.30;2.13;;;21.80;41.40;;;;;;4180619;28;20557;-71
2022/08/09 08:42:39;;;;;;;3.53;3.27;;;22.10;41.20;;;;;;4181378;28;20203;-71
2022/08/09 08:44:42;;;;;;;2.47;2.00;;;22.30;41.10;;;;;;4181149;28;20187;-71
2022/08/09 08:46:43;;;;;;;5.97;5.60;;;22.50;38.50;;;;;;4180821;28;20267;-72
2022/08/09 08:48:44;;;;;;;4.43;1.90;;;22.30;40.40;;;;;;4181050;28;20259;-71
2022/08/09 08:50:46;;;;;;;4.60;2.00;;;22.30;39.10;;;;;;4178831;28;20742;-71
2022/08/09 08:52:48;;;;;;;1.83;1.60;;;22.40;38.80;;;;;;4166720;28;20266;-72
2022/08/09 08:54:48;;;;;;;2.40;2.20;;;22.50;39.20;;;;;;4163318;28;20185;-71
2022/08/09 08:56:49;;;;;;;2.40;1.90;;;22.60;38.20;;;;;;4164411;28;20215;-71
2022/08/09 08:58:51;;;;;;;6.10;5.60;;;22.60;39.40;;;;;;4164491;28;20733;-71
2022/08/09 09:00:51;;;;;;;3.03;2.67;;;22.90;38.60;;;;;;4163740;28;20180;-72
2022/08/09 09:02:58;;;;;;;4.70;4.17;;;23.20;38.90;;;;;;4162906;28;20223;-71
2022/08/09 09:05:00;;;;;;;3.53;3.00;;;23.10;36.90;;;;;;4163127;28;20169;-71
2022/08/09 09:07:07;;;;;;;2.00;1.70;;;23.10;37.20;;;;;;4162978;28;20196;-71
2022/08/09 09:09:10;;;;;;;4.30;4.00;;;23.10;37.00;;;;;;4178353;28;20180;-71
2022/08/09 09:11:11;;;;;;;6.40;5.93;;;23.10;36.70;;;;;;4178723;28;20180;-71
2022/08/09 09:13:15;;;;;;;10.30;9.57;;;23.30;36.40;;;;;;4179514;28;20582;-71
2022/08/09 09:15:15;;;;;;;2.30;2.13;;;23.30;36.00;;;;;;4179348;28;20681;-71
2022/08/09 09:17:16;;;;;;;2.40;2.20;;;23.50;36.30;;;;;;4178319;28;20238;-71
2022/08/09 09:19:17;;;;;;;2.90;2.70;;;23.70;35.60;;;;;;4180535;28;20262;-71
2022/08/09 09:21:18;;;;;;;8.33;7.57;;;23.80;35.20;;;;;;4178628;28;20198;-71
2022/08/09 09:23:41;;;;;;;3.07;2.40;;;23.60;35.00;;;;;;4180616;28;20177;-71
2022/08/09 09:25:43;;;;;;;2.33;1.60;;;23.80;35.20;;;;;;4179211;28;20196;-72
2022/08/09 09:27:44;;;;;;;5.27;1.70;;;23.90;34.20;;;;;;4179400;28;20192;-71
2022/08/09 09:29:45;;;;;;;2.90;1.80;;;24.40;33.30;;;;;;4180216;28;20196;-71
2022/08/09 09:31:49;;;;;;;3.03;2.10;;;24.30;32.80;;;;;;4178549;28;20593;-71
2022/08/09 09:33:50;;;;;;;3.90;2.20;;;24.40;32.50;;;;;;4179267;28;20217;-71
2022/08/09 09:35:57;;;;;;;3.40;2.77;;;24.50;32.00;;;;;;4180380;28;20196;-71
2022/08/09 09:37:59;;;;;;;2.83;2.63;;;24.60;31.70;;;;;;4179039;28;20675;-71
2022/08/09 09:39:59;;;;;;;3.27;2.77;;;24.70;31.50;;;;;;4162527;28;20185;-71
2022/08/09 09:42:04;;;;;;;16.40;14.93;;;24.40;32.30;;;;;;4179615;28;20235;-71
2022/08/09 09:44:06;;;;;;;3.93;2.27;;;24.50;31.90;;;;;;4179174;28;20172;-71
2022/08/09 09:46:07;;;;;;;4.83;2.40;;;24.70;31.80;;;;;;4178983;28;20254;-71
2022/08/09 09:48:08;;;;;;;7.43;7.03;;;25.00;29.90;;;;;;4180351;28;20182;-72
2022/08/09 09:50:09;;;;;;;2.40;1.47;;;25.10;29.20;;;;;;4178829;28;20188;-71
2022/08/09 09:52:11;;;;;;;3.33;2.83;;;25.20;29.30;;;;;;4179784;28;20274;-71
2022/08/09 09:54:16;;;;;;;25.87;24.40;;;25.30;28.90;;;;;;4178876;28;20180;-72
2022/08/09 09:56:17;;;;;;;3.17;2.87;;;25.40;28.70;;;;;;4179020;28;20191;-71
2022/08/09 09:58:17;;;;;;;2.97;2.77;;;25.40;29.40;;;;;;4178802;28;20235;-71
2022/08/09 10:00:24;;;;;;;6.80;6.23;;;25.30;30.10;;;;;;4178045;28;20684;-71
2022/08/09 10:02:26;;;;;;;17.80;16.77;;;25.10;30.60;;;;;;4161974;28;20235;-71
2022/08/09 10:04:27;;;;;;;4.27;3.07;;;25.40;29.80;;;;;;4180051;28;20694;-71
2022/08/09 10:06:40;;;;;;;3.33;3.10;;;25.90;29.80;;;;;;4178854;28;20200;-71
2022/08/09 10:08:43;;;;;;;2.33;2.00;;;26.20;29.20;;;;;;4178613;28;20628;-71
2022/08/09 10:10:43;;;;;;;1.77;1.67;;;26.40;28.40;;;;;;4179294;28;20262;-72
2022/08/09 10:12:52;;;;;;;3.33;3.13;;;26.80;28.60;;;;;;4178655;28;20684;-70
2022/08/09 10:15:22;;;;;;;9.17;8.67;;;26.40;28.80;;;;;;4180140;28;20246;-71
2022/08/09 10:17:23;;;;;;;8.30;7.80;;;26.30;28.40;;;;;;4179303;28;20722;-71
2022/08/09 10:19:37;;;;;;;3.50;3.30;;;26.30;28.30;;;;;;4179715;28;20176;-71
2022/08/09 10:21:47;;;;;;;22.83;21.57;;;26.30;27.90;;;;;;4179336;28;20204;-71
2022/08/09 10:23:49;;;;;;;2.33;1.80;;;26.50;27.20;;;;;;4178736;28;20217;-71
2022/08/09 10:25:50;;;;;;;2.17;2.03;;;26.20;27.10;;;;;;4179863;28;20184;-72
2022/08/09 10:27:51;;;;;;;2.10;1.93;;;26.50;26.40;;;;;;4178553;28;20687;-71
2022/08/09 10:29:52;;;;;;;2.77;2.53;;;27.20;26.30;;;;;;4179376;28;20188;-71
2022/08/09 10:31:53;;;;;;;3.70;3.40;;;27.60;25.20;;;;;;4177682;28;20640;-71
2022/08/09 10:33:54;;;;;;;1.90;1.80;;;28.10;25.30;;;;;;4178438;28;20770;-71
2022/08/09 10:35:55;;;;;;;2.60;1.83;;;28.70;24.30;;;;;;4179437;28;20238;-71
2022/08/09 10:38:00;;;;;;;2.33;2.17;;;29.50;24.30;;;;;;4178116;28;20208;-71
2022/08/09 10:40:01;;;;;;;2.30;2.10;;;29.90;22.80;;;;;;4178050;28;20805;-71